KDNV/DNV METAR and TAF weather

Enter ICAO airport designator
Station Type Date Time Source
KDNV METAR 2020/08/11 18:15 UTC NOAA

KDNV 111815Z AUTO 28003KT 10SM BKN021 25/20 A3003 RMK AO2 T02480197


Station Type Date Time Source
KDNV Decoded METAR 2020/08/11 18:15 UTC NOAA

Danville, Vermilion County Airport, IL, United States (KDNV) 40-11-58N 087-35-44W
Aug 11, 2020 - 02:15 PM EDT / 2020.08.11 1815 UTC
Wind: from the W (280 degrees) at 3 MPH (3 KT):0
Visibility: 10 mile(s):0
Sky conditions: mostly cloudy
Temperature: 76.6 F (24.8 C)
Dew Point: 67.5 F (19.7 C)
Relative Humidity: 73%
Pressure (altimeter): 30.03 in. Hg (1016 hPa)
ob: KDNV 111815Z AUTO 28003KT 10SM BKN021 25/20 A3003 RMK AO2 T02480197
cycle: 18

Station Type Date Time Source
KDNV TAF UTC NOAA

Error!

Example: see airport list